Time;durP1;ratioP1;P1;durP2;ratioP2;P2;SDS_P1;SDS_P2;PMS_P1;PMS_P2;Temp;Humidity;BMP_temperature;BMP_pressure;BME280_temperature;BME280_humidity;BME280_pressure;Samples;Min_cycle;Max_cycle;Signal;HPM_P1;HPM_P2
2022/10/29 00:00:36;;;;;;;4.32;0.65;;;14.30;99.90;;;;;;5049562;28;20034;-80
2022/10/29 00:03:01;;;;;;;5.90;1.00;;;14.30;99.90;;;;;;5068122;28;20469;-76
2022/10/29 00:05:27;;;;;;;5.45;0.82;;;14.20;99.90;;;;;;5068948;28;20036;-76
2022/10/29 00:07:53;;;;;;;3.10;0.57;;;14.20;99.90;;;;;;5068901;28;20060;-74
2022/10/29 00:10:18;;;;;;;3.38;0.80;;;14.30;99.90;;;;;;5076797;28;20024;-76
2022/10/29 00:12:44;;;;;;;4.93;0.70;;;14.30;99.90;;;;;;5065673;28;20086;-77
2022/10/29 00:15:10;;;;;;;3.55;0.70;;;14.20;99.90;;;;;;5065328;28;20148;-75
2022/10/29 00:17:35;;;;;;;2.97;0.68;;;14.10;99.90;;;;;;5066930;28;20071;-75
2022/10/29 00:20:01;;;;;;;5.25;0.65;;;13.90;99.90;;;;;;5074571;28;20357;-75
2022/10/29 00:22:27;;;;;;;4.95;0.60;;;13.90;99.90;;;;;;5064343;28;20037;-82
2022/10/29 00:24:52;;;;;;;4.43;0.60;;;13.90;99.90;;;;;;5067539;28;20033;-75
2022/10/29 00:27:18;;;;;;;4.07;0.60;;;13.90;99.90;;;;;;5062037;28;20037;-76
2022/10/29 00:29:44;;;;;;;5.05;0.68;;;13.80;99.90;;;;;;5066468;28;20024;-75
2022/10/29 00:32:09;;;;;;;3.67;0.70;;;13.80;99.90;;;;;;5065375;28;20046;-77
2022/10/29 00:34:36;;;;;;;3.95;0.50;;;13.90;99.90;;;;;;5067229;28;20419;-79
2022/10/29 00:37:03;;;;;;;2.67;0.60;;;13.90;99.90;;;;;;5064571;28;20040;-74
2022/10/29 00:39:28;;;;;;;3.80;0.70;;;13.90;99.90;;;;;;5062599;28;20043;-76
2022/10/29 00:41:55;;;;;;;8.27;0.70;;;13.90;99.90;;;;;;5080168;28;20493;-81
2022/10/29 00:44:37;;;;;;;4.18;0.70;;;13.90;99.90;;;;;;5064477;28;20025;-75
2022/10/29 00:47:34;;;;;;;5.18;1.00;;;13.90;99.90;;;;;;5064662;28;20112;-76
2022/10/29 00:50:12;;;;;;;3.10;1.05;;;13.90;99.90;;;;;;5058511;28;20038;-75
2022/10/29 00:52:42;;;;;;;4.60;0.70;;;13.90;99.90;;;;;;5064659;28;20028;-75
2022/10/29 00:55:10;;;;;;;;;;;13.80;99.90;;;;;;5062748;28;20090;-81
2022/10/29 00:57:40;;;;;;;3.22;0.63;;;13.70;99.90;;;;;;5064044;28;19995;-82
2022/10/29 01:00:06;;;;;;;5.65;0.90;;;13.60;99.90;;;;;;5065236;28;20037;-76
2022/10/29 01:02:35;;;;;;;2.70;0.60;;;13.50;99.90;;;;;;5062973;28;20027;-75
2022/10/29 01:05:02;;;;;;;2.13;0.70;;;13.50;99.90;;;;;;5064852;28;20029;-75
2022/10/29 01:07:28;;;;;;;5.47;0.85;;;13.40;99.90;;;;;;5062548;28;20123;-78
2022/10/29 01:09:54;;;;;;;7.60;0.95;;;13.30;99.90;;;;;;5062546;28;20536;-75
2022/10/29 01:12:28;;;;;;;5.13;0.85;;;13.30;99.90;;;;;;5064380;28;20043;-75
2022/10/29 01:15:20;;;;;;;1.75;0.60;;;13.20;99.90;;;;;;5062210;28;20045;-76
2022/10/29 01:18:10;;;;;;;2.97;0.90;;;13.20;99.90;;;;;;5054617;28;20146;-76
2022/10/29 01:20:54;;;;;;;3.67;0.60;;;13.10;99.90;;;;;;5063028;28;20107;-79
2022/10/29 01:23:35;;;;;;;5.05;0.60;;;13.00;99.90;;;;;;5059339;28;20060;-75
2022/10/29 01:26:22;;;;;;;3.30;0.90;;;13.00;99.90;;;;;;5062353;28;20377;-75
2022/10/29 01:29:06;;;;;;;4.65;0.63;;;13.00;99.90;;;;;;5062801;28;20115;-75
2022/10/29 01:31:45;;;;;;;3.05;0.63;;;13.00;99.90;;;;;;5064751;28;20040;-75
2022/10/29 01:34:21;;;;;;;3.27;0.60;;;12.90;99.90;;;;;;5060050;28;20039;-76
2022/10/29 01:37:00;;;;;;;1.95;0.60;;;12.90;99.90;;;;;;5062680;28;20341;-75
2022/10/29 01:39:26;;;;;;;2.50;0.57;;;12.90;99.90;;;;;;5058291;28;20029;-82
2022/10/29 01:41:59;;;;;;;3.47;0.63;;;12.80;99.90;;;;;;5062351;28;20068;-79
2022/10/29 01:44:49;;;;;;;3.40;0.70;;;12.90;99.90;;;;;;5044958;28;20021;-81
2022/10/29 01:47:18;;;;;;;2.42;0.70;;;12.90;99.90;;;;;;5044405;28;20115;-75
2022/10/29 01:49:48;;;;;;;3.72;0.80;;;12.90;99.90;;;;;;5058062;28;20102;-77
2022/10/29 01:52:16;;;;;;;4.32;1.33;;;13.00;99.90;;;;;;5063806;28;20074;-76
2022/10/29 01:54:44;;;;;;;4.20;1.23;;;13.00;99.90;;;;;;5060363;28;20021;-75
2022/10/29 01:57:36;;;;;;;4.85;1.13;;;12.90;99.90;;;;;;5064623;28;20024;-76
2022/10/29 02:00:06;;;;;;;7.38;1.45;;;12.90;99.90;;;;;;5060066;28;20032;-77
2022/10/29 02:03:11;;;;;;;8.73;1.08;;;13.10;99.90;;;;;;5063827;28;20119;-81
2022/10/29 02:06:19;;;;;;;4.38;0.85;;;13.10;99.90;;;;;;5060362;28;20032;-76
2022/10/29 02:09:08;;;;;;;3.47;0.80;;;13.10;99.90;;;;;;5045238;28;20044;-80
2022/10/29 02:12:00;;;;;;;3.28;1.05;;;13.10;99.90;;;;;;5062039;28;20059;-81
2022/10/29 02:14:32;;;;;;;6.80;1.08;;;13.20;99.90;;;;;;5043002;28;20460;-76
2022/10/29 02:16:59;;;;;;;3.70;1.10;;;13.10;99.90;;;;;;5062186;28;20044;-81
2022/10/29 02:19:32;;;;;;;4.10;1.30;;;13.10;99.90;;;;;;5062306;28;20063;-76
2022/10/29 02:21:57;;;;;;;3.40;1.05;;;13.20;99.90;;;;;;5062662;28;20480;-79
2022/10/29 02:24:24;;;;;;;6.45;1.35;;;13.10;99.90;;;;;;5060833;28;20124;-75
2022/10/29 02:26:50;;;;;;;4.53;1.23;;;13.10;99.90;;;;;;5064424;28;20021;-81
2022/10/29 02:29:16;;;;;;;3.58;0.95;;;13.10;99.90;;;;;;5063349;28;20032;-82
2022/10/29 02:31:41;;;;;;;4.55;0.85;;;13.20;99.90;;;;;;5063922;28;20024;-81
2022/10/29 02:34:07;;;;;;;6.22;1.00;;;13.10;99.90;;;;;;5063517;28;20047;-75
2022/10/29 02:36:32;;;;;;;4.18;1.55;;;13.10;99.90;;;;;;5061553;28;20579;-75
2022/10/29 02:38:58;;;;;;;4.35;1.30;;;13.10;99.90;;;;;;5074106;28;20032;-76
2022/10/29 02:41:24;;;;;;;4.70;1.25;;;13.20;99.90;;;;;;5065816;28;20039;-76
2022/10/29 02:43:49;;;;;;;4.03;1.23;;;13.10;99.90;;;;;;5064868;28;20036;-81
2022/10/29 02:46:20;;;;;;;2.88;1.42;;;13.10;99.90;;;;;;5061916;28;21372;-76
2022/10/29 02:48:46;;;;;;;2.97;1.08;;;13.10;99.90;;;;;;5062248;28;20078;-76
2022/10/29 02:51:12;;;;;;;5.30;1.15;;;13.00;99.90;;;;;;5042766;28;20087;-75
2022/10/29 02:53:39;;;;;;;3.25;1.33;;;13.00;99.90;;;;;;5063587;28;20495;-78
2022/10/29 02:56:05;;;;;;;4.53;1.20;;;12.90;99.90;;;;;;5061205;28;20041;-77
2022/10/29 02:58:31;;;;;;;3.08;1.25;;;12.80;99.90;;;;;;5043671;28;20029;-75
2022/10/29 03:00:57;;;;;;;4.22;1.25;;;12.80;99.90;;;;;;5064277;28;20017;-75
2022/10/29 03:03:23;;;;;;;4.40;1.50;;;12.80;99.90;;;;;;5060861;28;20117;-81
2022/10/29 03:05:49;;;;;;;4.97;1.77;;;12.80;99.90;;;;;;5063262;28;20400;-76
2022/10/29 03:08:15;;;;;;;5.07;1.38;;;12.80;99.90;;;;;;5062360;28;20386;-80
2022/10/29 03:10:41;;;;;;;3.47;1.02;;;12.80;99.90;;;;;;5062255;28;20027;-77
2022/10/29 03:13:06;;;;;;;3.88;1.20;;;12.70;99.90;;;;;;5055037;28;20028;-76
2022/10/29 03:15:32;;;;;;;6.13;1.48;;;12.70;99.90;;;;;;5077171;28;20127;-76
2022/10/29 03:17:58;;;;;;;5.80;1.80;;;12.70;99.90;;;;;;5048870;28;20033;-80
2022/10/29 03:20:23;;;;;;;4.82;1.40;;;12.70;99.90;;;;;;5066052;28;20119;-75
2022/10/29 03:22:49;;;;;;;4.78;1.60;;;12.60;99.90;;;;;;5062879;28;20111;-75
2022/10/29 03:25:15;;;;;;;3.63;1.10;;;12.70;99.90;;;;;;5062669;28;20035;-76
2022/10/29 03:27:44;;;;;;;3.72;1.25;;;12.70;99.90;;;;;;5061786;28;20031;-77
2022/10/29 03:30:12;;;;;;;2.78;1.27;;;12.70;99.90;;;;;;5060897;28;20061;-75
2022/10/29 03:32:45;;;;;;;4.60;1.30;;;12.70;99.90;;;;;;5062905;28;20039;-75
2022/10/29 03:35:13;;;;;;;3.03;1.00;;;12.60;99.90;;;;;;5064874;28;20079;-76
2022/10/29 03:37:39;;;;;;;5.65;1.88;;;12.60;99.90;;;;;;5056879;28;20107;-75
2022/10/29 03:40:06;;;;;;;4.57;1.33;;;12.50;99.90;;;;;;5068448;28;20063;-81
2022/10/29 03:42:32;;;;;;;3.97;1.50;;;12.50;99.90;;;;;;5066894;28;20037;-74
2022/10/29 03:44:58;;;;;;;3.50;1.13;;;12.40;99.90;;;;;;5062983;28;20028;-75
2022/10/29 03:47:24;;;;;;;4.78;1.60;;;12.40;99.90;;;;;;5047790;28;20380;-79
2022/10/29 03:49:50;;;;;;;3.85;1.60;;;12.30;99.90;;;;;;5064200;28;20025;-75
2022/10/29 03:52:15;;;;;;;8.52;2.25;;;12.40;99.90;;;;;;5068279;28;20032;-80
2022/10/29 03:54:41;;;;;;;3.88;1.70;;;12.40;99.90;;;;;;5064123;28;20013;-75
2022/10/29 03:57:07;;;;;;;4.57;1.50;;;12.40;99.90;;;;;;5055384;28;20041;-75
2022/10/29 03:59:32;;;;;;;6.45;2.10;;;12.40;99.90;;;;;;5068178;28;20075;-76
2022/10/29 04:01:58;;;;;;;4.53;1.83;;;12.50;99.90;;;;;;5065274;28;20029;-80
2022/10/29 04:04:24;;;;;;;7.50;1.75;;;12.50;99.90;;;;;;5062723;28;20043;-81
2022/10/29 04:06:49;;;;;;;5.35;2.05;;;12.40;99.90;;;;;;5064041;28;20032;-77
2022/10/29 04:09:15;;;;;;;3.75;1.40;;;12.40;99.90;;;;;;5065092;28;20021;-75
2022/10/29 04:11:41;;;;;;;5.85;2.15;;;12.50;99.90;;;;;;5063279;28;20412;-76
2022/10/29 04:14:06;;;;;;;4.80;1.98;;;12.50;99.90;;;;;;5074122;28;20540;-78
2022/10/29 04:16:32;;;;;;;5.93;1.83;;;12.40;99.90;;;;;;5051031;28;20036;-78
2022/10/29 04:18:58;;;;;;;4.63;1.45;;;12.40;99.90;;;;;;5064864;28;20048;-75
2022/10/29 04:21:24;;;;;;;3.92;1.90;;;12.40;99.90;;;;;;5046966;28;20039;-75
2022/10/29 04:23:50;;;;;;;4.43;1.90;;;12.40;99.90;;;;;;5063591;28;20040;-79
2022/10/29 04:26:16;;;;;;;5.13;2.17;;;12.40;99.90;;;;;;5065447;28;20035;-80
2022/10/29 04:28:42;;;;;;;6.22;2.38;;;12.30;99.90;;;;;;5064973;28;20017;-76
2022/10/29 04:31:10;;;;;;;3.92;2.08;;;12.30;99.90;;;;;;5067217;28;20388;-75
2022/10/29 04:33:36;;;;;;;4.63;1.80;;;12.30;99.90;;;;;;5063919;28;20096;-75
2022/10/29 04:36:02;;;;;;;4.82;1.98;;;12.30;99.90;;;;;;5062789;28;20124;-81
2022/10/29 04:38:28;;;;;;;6.00;1.67;;;12.30;99.90;;;;;;5064052;28;20484;-80
2022/10/29 04:41:01;;;;;;;6.43;2.25;;;12.40;99.90;;;;;;5067257;28;20515;-80
2022/10/29 04:43:28;;;;;;;3.92;1.88;;;12.40;99.90;;;;;;5057500;28;20025;-75
2022/10/29 04:45:55;;;;;;;6.05;1.45;;;12.50;99.90;;;;;;5064054;28;20027;-75
2022/10/29 04:48:22;;;;;;;5.80;2.65;;;12.50;99.90;;;;;;5063512;28;20029;-81
2022/10/29 04:50:49;;;;;;;5.22;2.47;;;12.40;99.90;;;;;;5066998;28;20031;-77
2022/10/29 04:53:15;;;;;;;3.67;2.03;;;12.50;99.90;;;;;;5065170;28;20048;-75
2022/10/29 04:55:41;;;;;;;4.50;1.73;;;12.50;99.90;;;;;;5046635;28;20037;-81
2022/10/29 04:58:11;;;;;;;3.42;2.05;;;12.50;99.90;;;;;;5050089;28;20035;-75
2022/10/29 05:00:36;;;;;;;;;;;12.40;99.90;;;;;;5063302;28;20078;-80
2022/10/29 05:03:02;;;;;;;3.58;1.35;;;12.40;99.90;;;;;;5066969;28;19916;-78
2022/10/29 05:05:28;;;;;;;3.42;1.55;;;12.40;99.90;;;;;;5065129;28;20219;-79
2022/10/29 05:07:58;;;;;;;6.85;2.03;;;12.30;99.90;;;;;;5067185;28;20037;-75
2022/10/29 05:10:26;;;;;;;5.22;1.60;;;12.10;99.90;;;;;;5045732;28;20530;-75
2022/10/29 05:12:56;;;;;;;3.42;2.30;;;12.10;99.90;;;;;;5077783;28;20377;-80
2022/10/29 05:15:22;;;;;;;6.13;2.17;;;12.10;99.90;;;;;;5055321;28;20154;-80
2022/10/29 05:17:47;;;;;;;5.60;2.55;;;12.10;99.90;;;;;;5063942;28;20131;-75
2022/10/29 05:20:13;;;;;;;4.47;2.10;;;12.00;99.90;;;;;;5080074;28;20083;-76
2022/10/29 05:22:39;;;;;;;4.47;2.50;;;12.10;99.90;;;;;;5065604;28;20063;-75
2022/10/29 05:25:05;;;;;;;5.70;2.58;;;12.20;99.90;;;;;;5062299;28;20090;-79
2022/10/29 05:27:30;;;;;;;6.50;2.70;;;12.20;99.90;;;;;;5060873;28;20039;-75
2022/10/29 05:29:56;;;;;;;5.45;3.05;;;12.10;99.90;;;;;;5065826;28;20024;-75
2022/10/29 05:32:22;;;;;;;3.72;2.17;;;12.10;99.90;;;;;;5049112;28;20032;-75
2022/10/29 05:34:47;;;;;;;7.65;2.50;;;12.00;99.90;;;;;;5064280;28;20021;-75
2022/10/29 05:37:13;;;;;;;4.18;1.95;;;12.00;99.90;;;;;;5062535;28;20084;-76
2022/10/29 05:39:38;;;;;;;6.78;2.58;;;11.90;99.90;;;;;;5066969;28;20029;-75
2022/10/29 05:42:05;;;;;;;5.15;2.42;;;12.00;99.90;;;;;;5063011;28;20119;-79
2022/10/29 05:44:30;;;;;;;5.50;2.10;;;11.90;99.90;;;;;;5062387;28;20448;-77
2022/10/29 05:46:56;;;;;;;6.28;2.47;;;11.90;99.90;;;;;;5062212;28;20044;-81
2022/10/29 05:49:22;;;;;;;3.97;2.30;;;11.90;99.90;;;;;;5063760;28;20401;-74
2022/10/29 05:51:47;;;;;;;4.40;2.40;;;12.00;99.90;;;;;;5065125;28;20112;-76
2022/10/29 05:54:13;;;;;;;6.65;3.08;;;11.90;99.90;;;;;;5058211;28;20116;-75
2022/10/29 05:56:38;;;;;;;4.88;2.40;;;11.90;99.90;;;;;;5047051;28;20513;-75
2022/10/29 05:59:04;;;;;;;4.20;2.42;;;11.90;99.90;;;;;;5060658;28;20508;-77
2022/10/29 06:01:30;;;;;;;4.32;1.98;;;11.80;99.90;;;;;;5079253;28;20044;-76
2022/10/29 06:03:56;;;;;;;4.63;2.58;;;12.10;99.90;;;;;;5060555;28;20074;-76
2022/10/29 06:06:22;;;;;;;4.95;2.33;;;12.10;99.90;;;;;;5045680;28;20487;-80
2022/10/29 06:08:47;;;;;;;5.82;2.45;;;12.00;99.90;;;;;;5074165;28;20021;-80
2022/10/29 06:11:13;;;;;;;4.78;2.88;;;11.90;99.90;;;;;;5063875;28;20155;-80
2022/10/29 06:13:39;;;;;;;4.93;2.85;;;11.90;99.90;;;;;;5063810;28;20048;-80
2022/10/29 06:16:05;;;;;;;5.65;2.60;;;11.90;99.90;;;;;;5060291;28;20056;-77
2022/10/29 06:18:30;;;;;;;4.63;2.65;;;11.90;99.90;;;;;;5065878;28;20099;-77
2022/10/29 06:20:59;;;;;;;6.15;3.60;;;11.80;99.90;;;;;;5062640;28;20503;-76
2022/10/29 06:23:26;;;;;;;4.47;2.40;;;11.90;99.90;;;;;;5063223;28;20035;-77
2022/10/29 06:25:52;;;;;;;5.80;2.53;;;11.90;99.90;;;;;;5060940;28;20413;-77
2022/10/29 06:28:18;;;;;;;5.70;2.78;;;11.90;99.90;;;;;;5060216;28;20029;-81
2022/10/29 06:30:48;;;;;;;3.85;2.45;;;11.80;99.90;;;;;;5063288;28;20921;-75
2022/10/29 06:33:15;;;;;;;5.05;2.55;;;11.80;99.90;;;;;;5062585;28;20035;-81
2022/10/29 06:35:41;;;;;;;7.05;2.63;;;11.80;99.90;;;;;;5060136;28;20074;-76
2022/10/29 06:38:07;;;;;;;4.25;2.47;;;11.90;99.90;;;;;;5061291;28;20104;-76
2022/10/29 06:40:32;;;;;;;4.53;2.28;;;12.00;99.90;;;;;;5062475;28;20487;-75
2022/10/29 06:42:59;;;;;;;3.70;2.40;;;12.00;99.90;;;;;;5060127;28;20148;-74
2022/10/29 06:45:25;;;;;;;4.70;2.08;;;12.10;99.90;;;;;;5046679;28;20029;-77
2022/10/29 06:47:51;;;;;;;5.38;2.70;;;12.30;99.90;;;;;;5063102;28;20028;-75
2022/10/29 06:50:17;;;;;;;7.10;2.92;;;12.50;99.90;;;;;;5062039;28;20032;-74
2022/10/29 06:52:42;;;;;;;5.50;2.45;;;12.50;99.90;;;;;;5041944;28;20021;-79
2022/10/29 06:55:08;;;;;;;4.80;2.40;;;12.50;99.90;;;;;;5064704;28;20457;-76
2022/10/29 06:57:34;;;;;;;5.18;3.00;;;12.50;99.90;;;;;;5063982;28;20045;-76
2022/10/29 07:00:00;;;;;;;5.95;2.22;;;12.50;99.90;;;;;;5059355;28;20032;-75
2022/10/29 07:02:26;;;;;;;3.55;2.38;;;12.50;99.90;;;;;;5056900;28;20028;-79
2022/10/29 07:04:51;;;;;;;4.78;2.40;;;12.60;99.90;;;;;;5056536;28;20427;-75
2022/10/29 07:07:17;;;;;;;4.75;2.25;;;12.60;99.90;;;;;;5055540;28;20055;-75
2022/10/29 07:09:43;;;;;;;3.03;2.03;;;12.60;99.90;;;;;;5055742;28;20036;-75
2022/10/29 07:12:09;;;;;;;5.72;2.33;;;12.60;99.90;;;;;;5058101;28;20029;-77
2022/10/29 07:14:35;;;;;;;4.03;1.80;;;12.60;99.90;;;;;;5065673;28;20139;-76
2022/10/29 07:17:00;;;;;;;3.92;2.40;;;12.70;99.90;;;;;;5074078;28;20136;-74
2022/10/29 07:19:26;;;;;;;3.90;2.75;;;12.70;99.90;;;;;;5059607;28;20124;-78
2022/10/29 07:21:51;;;;;;;4.95;2.95;;;12.80;99.90;;;;;;5060421;28;20546;-75
2022/10/29 07:24:17;;;;;;;4.13;2.40;;;12.80;99.90;;;;;;5064301;28;20059;-75
2022/10/29 07:26:43;;;;;;;4.18;2.28;;;12.80;99.90;;;;;;5038832;28;20053;-77
2022/10/29 07:29:09;;;;;;;3.95;2.40;;;12.90;99.90;;;;;;5056697;28;20460;-80
2022/10/29 07:31:35;;;;;;;3.78;2.53;;;12.90;99.90;;;;;;5063576;28;20100;-76
2022/10/29 07:34:01;;;;;;;4.40;1.90;;;13.00;99.90;;;;;;5062424;28;20451;-76
2022/10/29 07:36:29;;;;;;;7.93;2.63;;;13.10;99.90;;;;;;5063399;28;20397;-77
2022/10/29 07:38:55;;;;;;;5.78;2.72;;;13.30;99.90;;;;;;5059149;28;20542;-75
2022/10/29 07:41:21;;;;;;;6.70;2.13;;;13.40;99.90;;;;;;5073068;28;20043;-75
2022/10/29 07:43:46;;;;;;;5.35;3.03;;;13.60;99.90;;;;;;5062655;28;20033;-77
2022/10/29 07:46:12;;;;;;;6.80;2.55;;;13.60;99.90;;;;;;5063761;28;20063;-76
2022/10/29 07:48:38;;;;;;;4.63;2.55;;;13.60;99.90;;;;;;5060503;28;20028;-76
2022/10/29 07:51:04;;;;;;;5.60;2.55;;;13.60;99.90;;;;;;5058859;28;20039;-77
2022/10/29 07:53:32;;;;;;;5.10;2.83;;;13.70;99.90;;;;;;5066999;28;20036;-78
2022/10/29 07:55:58;;;;;;;4.80;2.90;;;13.80;99.90;;;;;;5058668;28;20052;-77
2022/10/29 07:58:24;;;;;;;5.68;3.05;;;13.90;99.90;;;;;;5054255;28;20029;-75
2022/10/29 08:00:51;;;;;;;8.07;3.30;;;14.20;99.90;;;;;;5064319;28;20029;-75
2022/10/29 08:03:16;;;;;;;8.23;3.15;;;14.20;99.90;;;;;;5040528;28;20036;-78
2022/10/29 08:05:42;;;;;;;5.70;3.45;;;14.40;99.90;;;;;;5073181;28;20099;-77
2022/10/29 08:08:08;;;;;;;6.60;3.15;;;14.40;99.90;;;;;;5060974;28;20390;-78
2022/10/29 08:10:34;;;;;;;8.13;3.15;;;14.50;99.90;;;;;;5063094;28;20051;-76
2022/10/29 08:13:01;;;;;;;7.15;3.35;;;14.70;99.90;;;;;;5055471;28;20102;-79
2022/10/29 08:15:29;;;;;;;6.38;3.13;;;14.70;99.90;;;;;;5054403;28;20171;-77
2022/10/29 08:17:55;;;;;;;7.13;3.40;;;14.80;99.90;;;;;;5039362;28;20094;-76
2022/10/29 08:20:23;;;;;;;7.68;3.30;;;14.90;99.90;;;;;;5052996;28;20029;-76
2022/10/29 08:22:49;;;;;;;4.53;2.83;;;15.00;99.90;;;;;;5039266;28;20040;-80
2022/10/29 08:25:15;;;;;;;6.72;3.13;;;15.00;99.90;;;;;;5063146;28;20033;-76
2022/10/29 08:27:41;;;;;;;7.13;3.22;;;15.10;99.90;;;;;;5057475;28;21739;-77
2022/10/29 08:30:09;;;;;;;8.82;3.88;;;15.10;99.90;;;;;;5056584;28;20032;-76
2022/10/29 08:32:34;;;;;;;7.10;3.40;;;15.10;99.90;;;;;;5055251;28;20033;-77
2022/10/29 08:35:01;;;;;;;5.93;3.63;;;15.30;99.90;;;;;;5064454;28;20756;-80
2022/10/29 08:37:27;;;;;;;5.35;2.65;;;15.50;99.90;;;;;;5058168;28;20028;-77
2022/10/29 08:39:53;;;;;;;7.65;3.78;;;15.60;99.90;;;;;;5063406;28;20111;-78
2022/10/29 08:42:33;;;;;;;8.18;3.22;;;15.70;99.90;;;;;;5055660;28;20035;-76
2022/10/29 08:45:23;;;;;;;4.65;2.90;;;15.90;99.90;;;;;;5060702;28;20556;-79
2022/10/29 08:48:28;;;;;;;4.97;3.03;;;16.10;99.90;;;;;;5037859;28;20041;-80
2022/10/29 08:51:19;;;;;;;6.50;2.95;;;16.10;99.90;;;;;;5057908;28;20025;-76
2022/10/29 08:53:48;;;;;;;9.07;3.53;;;16.20;99.90;;;;;;5038668;28;20024;-79
2022/10/29 08:56:34;;;;;;;7.13;3.55;;;16.20;99.90;;;;;;5061032;28;20037;-80
2022/10/29 08:59:02;;;;;;;8.82;2.90;;;16.20;99.90;;;;;;5055280;28;20028;-77
2022/10/29 09:01:28;;;;;;;11.13;3.35;;;16.20;99.90;;;;;;5070320;28;20118;-76
2022/10/29 09:03:54;;;;;;;6.05;2.50;;;16.30;99.90;;;;;;5038587;28;20128;-78
2022/10/29 09:06:32;;;;;;;7.03;2.95;;;16.30;99.90;;;;;;5063124;28;20131;-76
2022/10/29 09:09:19;;;;;;;5.95;2.75;;;16.40;99.90;;;;;;5055248;28;20033;-76
2022/10/29 09:12:11;;;;;;;5.35;2.60;;;16.40;99.90;;;;;;5057433;28;20053;-76
2022/10/29 09:15:09;;;;;;;5.75;2.58;;;16.40;99.90;;;;;;5074611;28;20207;-76
2022/10/29 09:17:42;;;;;;;5.88;2.85;;;16.50;99.90;;;;;;5057373;28;20504;-77
2022/10/29 09:20:28;;;;;;;6.72;2.60;;;16.60;99.90;;;;;;5055838;28;20484;-75
2022/10/29 09:23:15;;;;;;;6.80;2.92;;;16.80;99.90;;;;;;5054456;28;20037;-78
2022/10/29 09:26:04;;;;;;;7.45;2.50;;;17.00;99.90;;;;;;5041024;28;20074;-76
2022/10/29 09:28:52;;;;;;;5.88;2.38;;;17.10;99.90;;;;;;5055834;28;20098;-75
2022/10/29 09:31:36;;;;;;;5.82;2.22;;;17.10;99.90;;;;;;5056627;28;20029;-76
2022/10/29 09:34:12;;;;;;;3.80;2.13;;;17.10;99.90;;;;;;5056426;28;20040;-76
2022/10/29 09:36:38;;;;;;;5.75;2.67;;;17.10;99.90;;;;;;5057064;28;20071;-78
2022/10/29 09:39:12;;;;;;;5.63;3.05;;;17.20;99.90;;;;;;5054952;28;20029;-76
2022/10/29 09:41:38;;;;;;;7.45;3.28;;;17.20;99.90;;;;;;5056709;28;20033;-77
2022/10/29 09:44:30;;;;;;;5.93;2.53;;;17.20;99.90;;;;;;5049498;28;20059;-77
2022/10/29 09:47:15;;;;;;;4.90;2.70;;;17.20;99.90;;;;;;5053198;28;20079;-77
2022/10/29 09:50:04;;;;;;;8.63;3.05;;;17.30;99.90;;;;;;5065947;28;20033;-76
2022/10/29 09:52:32;;;;;;;4.93;2.17;;;17.40;99.90;;;;;;5054206;28;20029;-76
2022/10/29 09:55:01;;;;;;;5.65;2.30;;;17.50;99.90;;;;;;5053892;28;20102;-79
2022/10/29 09:57:29;;;;;;;5.85;2.80;;;17.50;99.90;;;;;;5052809;28;20086;-77
2022/10/29 10:00:12;;;;;;;6.93;2.72;;;17.60;99.90;;;;;;5071919;28;20040;-76
2022/10/29 10:02:43;;;;;;;9.77;2.55;;;17.60;99.90;;;;;;5059656;28;20043;-77
2022/10/29 10:05:12;;;;;;;4.60;2.33;;;17.80;99.90;;;;;;5041355;28;20465;-77
2022/10/29 10:07:38;;;;;;;7.45;2.20;;;17.80;99.90;;;;;;5038141;28;20032;-76
2022/10/29 10:10:07;;;;;;;4.28;2.35;;;17.80;99.90;;;;;;5039703;28;20047;-79
2022/10/29 10:12:35;;;;;;;5.90;2.72;;;17.80;99.90;;;;;;5049470;28;20032;-76
2022/10/29 10:15:05;;;;;;;5.72;2.45;;;17.80;99.90;;;;;;5052662;28;20044;-76
2022/10/29 10:17:53;;;;;;;4.45;2.00;;;17.80;99.90;;;;;;5035699;28;20761;-76
2022/10/29 10:20:40;;;;;;;4.57;2.22;;;17.80;99.90;;;;;;5051077;28;20135;-76
2022/10/29 10:23:42;;;;;;;5.10;2.25;;;17.80;99.90;;;;;;5057897;28;20032;-76
2022/10/29 10:26:42;;;;;;;5.55;1.70;;;17.80;99.90;;;;;;5040921;28;20051;-77
2022/10/29 10:29:15;;;;;;;3.47;1.50;;;17.90;99.90;;;;;;5051182;28;20043;-76
2022/10/29 10:31:49;;;;;;;6.20;1.85;;;18.00;99.90;;;;;;5052312;28;20385;-80
2022/10/29 10:34:35;;;;;;;5.60;1.83;;;18.10;99.90;;;;;;5051828;28;20501;-78
2022/10/29 10:37:10;;;;;;;4.15;1.80;;;18.10;99.90;;;;;;5057514;28;20147;-76
2022/10/29 10:39:37;;;;;;;3.67;1.70;;;18.10;99.90;;;;;;5056992;28;20066;-77
2022/10/29 10:42:18;;;;;;;4.50;1.52;;;18.10;99.90;;;;;;5059215;28;20043;-76
2022/10/29 10:44:51;;;;;;;5.28;1.40;;;18.20;99.90;;;;;;5059470;28;20051;-76
2022/10/29 10:47:22;;;;;;;10.00;1.80;;;18.20;99.90;;;;;;5051114;28;20098;-75
2022/10/29 10:49:48;;;;;;;12.02;1.80;;;18.40;99.90;;;;;;5058567;28;20377;-76
2022/10/29 10:52:25;;;;;;;5.88;1.58;;;18.60;99.90;;;;;;5052218;28;20058;-75
2022/10/29 10:55:15;;;;;;;8.85;1.80;;;18.70;99.90;;;;;;5058917;28;20036;-77
2022/10/29 10:57:47;;;;;;;;;;;19.00;99.90;;;;;;5058446;28;20036;-78
2022/10/29 11:00:18;;;;;;;7.38;1.27;;;19.30;99.90;;;;;;5059136;28;20022;-77
2022/10/29 11:02:53;;;;;;;9.35;1.67;;;19.50;99.90;;;;;;5041746;28;20089;-77
2022/10/29 11:05:22;;;;;;;4.40;1.40;;;19.50;99.90;;;;;;5057736;28;20032;-76
2022/10/29 11:08:15;;;;;;;4.88;1.85;;;19.40;99.90;;;;;;5033468;28;20059;-76
2022/10/29 11:11:06;;;;;;;5.05;1.10;;;19.30;99.90;;;;;;5026726;28;20060;-76
2022/10/29 11:13:33;;;;;;;4.15;1.23;;;19.70;99.90;;;;;;5032457;28;20043;-76
2022/10/29 11:16:26;;;;;;;4.07;1.13;;;20.00;99.90;;;;;;5045926;28;20090;-79
2022/10/29 11:19:00;;;;;;;5.07;1.08;;;20.00;99.90;;;;;;5031071;28;20040;-76
2022/10/29 11:21:59;;;;;;;6.93;1.13;;;20.30;99.90;;;;;;5036027;28;20453;-76
2022/10/29 11:24:54;;;;;;;4.00;0.90;;;20.70;99.90;;;;;;5058609;28;20032;-78
2022/10/29 11:27:38;;;;;;;5.05;1.00;;;20.70;99.90;;;;;;5033757;28;20039;-76
2022/10/29 11:30:11;;;;;;;6.28;1.63;;;20.80;99.90;;;;;;5052267;28;20174;-76
2022/10/29 11:32:55;;;;;;;4.22;1.30;;;20.70;99.90;;;;;;5057982;28;20117;-76
2022/10/29 11:35:33;;;;;;;3.40;0.85;;;20.50;99.90;;;;;;5051118;28;20036;-76
2022/10/29 11:38:08;;;;;;;4.18;0.98;;;20.40;99.90;;;;;;5050949;28;20035;-76
2022/10/29 11:40:45;;;;;;;3.85;1.08;;;20.60;99.90;;;;;;5057735;28;20089;-76
2022/10/29 11:43:12;;;;;;;4.95;1.05;;;20.90;99.90;;;;;;5050622;28;20037;-77
2022/10/29 11:45:56;;;;;;;3.80;0.80;;;21.30;99.90;;;;;;5051262;28;20158;-75
2022/10/29 11:48:49;;;;;;;3.67;1.00;;;21.50;99.90;;;;;;5049496;28;20032;-78
2022/10/29 11:51:32;;;;;;;4.38;1.23;;;21.60;99.90;;;;;;5058439;28;20046;-76
2022/10/29 11:54:18;;;;;;;4.47;0.85;;;21.30;99.90;;;;;;5058141;28;20040;-81
2022/10/29 11:56:47;;;;;;;5.30;1.30;;;21.40;99.90;;;;;;5053135;28;20036;-78
2022/10/29 11:59:18;;;;;;;4.35;0.95;;;21.20;99.90;;;;;;5062542;28;20224;-78
2022/10/29 12:02:11;;;;;;;6.65;1.30;;;21.20;99.90;;;;;;5062145;28;20050;-77
2022/10/29 12:05:07;;;;;;;5.95;1.20;;;21.10;99.90;;;;;;5054115;28;20338;-76
2022/10/29 12:08:08;;;;;;;7.05;1.20;;;20.90;99.90;;;;;;5065381;28;20044;-76
2022/10/29 12:10:52;;;;;;;2.67;0.95;;;20.70;99.90;;;;;;5060886;28;20029;-77
2022/10/29 12:13:23;;;;;;;3.85;0.80;;;20.60;99.90;;;;;;5056536;28;20024;-80
2022/10/29 12:16:05;;;;;;;3.17;0.80;;;20.40;99.90;;;;;;5040669;28;20043;-78
2022/10/29 12:18:49;;;;;;;2.60;0.75;;;20.60;99.90;;;;;;5052930;28;20566;-76
2022/10/29 12:21:30;;;;;;;3.85;0.90;;;20.60;99.90;;;;;;5061902;28;20024;-77
2022/10/29 12:24:08;;;;;;;4.70;0.93;;;20.70;99.90;;;;;;5062105;28;20553;-77
2022/10/29 12:26:52;;;;;;;3.08;0.93;;;20.80;99.90;;;;;;5054133;28;20036;-78
2022/10/29 12:29:21;;;;;;;1.88;0.68;;;20.80;99.90;;;;;;5060611;28;20047;-80
2022/10/29 12:32:06;;;;;;;4.93;0.75;;;20.70;99.90;;;;;;5053453;28;20036;-77
2022/10/29 12:34:44;;;;;;;6.32;0.73;;;20.60;99.90;;;;;;5036905;28;20042;-77
2022/10/29 12:37:12;;;;;;;4.05;0.75;;;20.70;99.90;;;;;;5054430;28;20040;-77
2022/10/29 12:39:46;;;;;;;3.47;0.88;;;20.60;99.90;;;;;;5060823;28;20709;-77
2022/10/29 12:42:23;;;;;;;3.78;0.75;;;20.60;99.90;;;;;;5053263;28;20039;-80
2022/10/29 12:45:10;;;;;;;3.72;1.15;;;20.70;99.90;;;;;;5053949;28;20942;-77
2022/10/29 12:47:51;;;;;;;7.10;1.38;;;20.90;99.90;;;;;;5053624;28;20105;-78
2022/10/29 12:50:59;;;;;;;3.17;1.25;;;21.10;99.90;;;;;;5052643;28;20047;-76
2022/10/29 12:53:48;;;;;;;2.85;0.98;;;21.40;99.90;;;;;;5061361;28;20069;-79
2022/10/29 12:56:15;;;;;;;1.90;0.60;;;21.60;99.90;;;;;;5060979;28;20044;-77
2022/10/29 12:58:51;;;;;;;2.20;0.98;;;21.70;99.90;;;;;;5053407;28;20036;-77
2022/10/29 13:01:26;;;;;;;4.13;0.70;;;21.70;99.90;;;;;;5053056;28;20450;-78
2022/10/29 13:03:52;;;;;;;4.70;0.70;;;21.70;99.90;;;;;;5051736;28;20037;-78
2022/10/29 13:06:40;;;;;;;3.80;0.73;;;21.80;99.90;;;;;;5040266;28;20442;-81
2022/10/29 13:09:29;;;;;;;3.60;0.70;;;21.60;99.90;;;;;;5046645;28;20505;-78
2022/10/29 13:12:01;;;;;;;4.20;1.20;;;21.50;99.90;;;;;;5070916;28;20620;-82